Time;durP1;ratioP1;P1;durP2;ratioP2;P2;SDS_P1;SDS_P2;PMS_P1;PMS_P2;Temp;Humidity;BMP_temperature;BMP_pressure;BME280_temperature;BME280_humidity;BME280_pressure;Samples;Min_cycle;Max_cycle;Signal;HPM_P1;HPM_P2
2022/02/23 00:00:23;;;;;;;8.07;2.27;;;;;;;5.39;100.00;100212.56;6128922;23;20374;-85
2022/02/23 00:02:50;;;;;;;8.33;2.80;;;;;;;5.37;100.00;100216.91;6131469;23;20367;-84
2022/02/23 00:05:17;;;;;;;12.07;2.47;;;;;;;5.44;100.00;100222.97;6153727;23;20017;-85
2022/02/23 00:07:44;;;;;;;11.37;3.47;;;;;;;5.42;100.00;100227.38;6129518;23;20025;-84
2022/02/23 00:10:12;;;;;;;8.57;3.23;;;;;;;5.43;100.00;100236.97;6130566;23;20022;-84
2022/02/23 00:12:40;;;;;;;16.30;2.90;;;;;;;5.35;100.00;100237.00;6154131;23;20017;-83
2022/02/23 00:15:07;;;;;;;11.17;2.60;;;;;;;5.25;100.00;100238.81;6127806;23;20044;-83
2022/02/23 00:17:33;;;;;;;8.90;3.40;;;;;;;5.20;100.00;100251.06;6129997;23;20025;-84
2022/02/23 00:20:00;;;;;;;11.63;3.03;;;;;;;5.24;100.00;100254.53;6132679;23;20397;-84
2022/02/23 00:22:29;;;;;;;12.67;3.37;;;;;;;5.28;100.00;100267.59;6128075;23;20464;-85
2022/02/23 00:24:58;;;;;;;11.77;5.17;;;;;;;5.28;100.00;100269.34;6128546;23;20021;-85
2022/02/23 00:27:25;;;;;;;10.90;2.73;;;;;;;5.31;100.00;100275.47;6128268;23;20026;-86
2022/02/23 00:29:54;;;;;;;10.70;3.13;;;;;;;5.33;100.00;100278.94;6104739;23;20045;-84
2022/02/23 00:32:22;;;;;;;11.50;2.97;;;;;;;5.32;100.00;100285.06;6127895;23;20046;-84
2022/02/23 00:34:51;;;;;;;16.07;3.20;;;;;;;5.27;100.00;100285.94;6128282;23;20025;-85
2022/02/23 00:37:18;;;;;;;16.23;3.47;;;;;;;5.23;100.00;100289.47;6129036;23;20078;-83
2022/02/23 00:39:46;;;;;;;15.53;4.20;;;;;;;5.25;100.00;100300.81;6128963;23;20026;-83
2022/02/23 00:42:13;;;;;;;10.47;3.30;;;;;;;5.22;100.00;100309.56;6127825;23;20032;-84
2022/02/23 00:44:40;;;;;;;14.60;3.80;;;;;;;5.31;100.00;100319.13;6127342;23;20120;-84
2022/02/23 00:47:07;;;;;;;17.07;3.73;;;;;;;5.31;100.00;100317.38;6128254;23;20108;-83
2022/02/23 00:49:37;;;;;;;15.30;3.53;;;;;;;5.36;100.00;100312.97;6128136;23;20033;-85
2022/02/23 00:52:08;;;;;;;13.37;3.57;;;;;;;5.30;100.00;100328.72;6129121;23;20048;-84
2022/02/23 00:54:36;;;;;;;9.37;3.10;;;;;;;5.30;100.00;100331.34;6128651;23;20651;-83
2022/02/23 00:57:03;;;;;;;16.53;3.57;;;;;;;5.29;100.00;100345.28;6128557;23;20021;-84
2022/02/23 00:59:31;;;;;;;16.70;4.23;;;;;;;5.32;100.00;100345.31;6128165;23;20076;-83
2022/02/23 01:02:01;;;;;;;12.07;3.90;;;;;;;5.33;100.00;100352.28;6105409;23;20076;-83
2022/02/23 01:04:27;;;;;;;16.63;4.23;;;;;;;5.35;100.00;100354.88;6126667;23;20039;-85
2022/02/23 01:06:54;;;;;;;14.87;3.10;;;;;;;5.29;100.00;100365.38;6152261;23;20457;-85
2022/02/23 01:09:21;;;;;;;17.27;3.70;;;;;;;5.31;100.00;100374.13;6152401;23;20109;-84
2022/02/23 01:11:47;;;;;;;14.27;3.70;;;;;;;5.28;100.00;100358.41;6127023;23;20036;-83
2022/02/23 01:14:14;;;;;;;12.00;3.00;;;;;;;5.29;99.27;100381.09;6127928;23;20025;-85
2022/02/23 01:16:41;;;;;;;11.97;3.57;;;;;;;5.21;97.81;100368.06;6127439;23;20397;-82
2022/02/23 01:19:07;;;;;;;25.43;4.27;;;;;;;5.26;97.88;100381.13;6129117;23;20496;-83
2022/02/23 01:21:34;;;;;;;19.47;4.50;;;;;;;5.30;97.21;100375.88;6104500;23;20461;-84
2022/02/23 01:24:01;;;;;;;12.63;3.57;;;;;;;5.26;96.32;100400.31;6128161;23;20365;-83
2022/02/23 01:26:28;;;;;;;16.90;3.37;;;;;;;5.18;95.80;100393.38;6126821;23;20032;-83
2022/02/23 01:28:54;;;;;;;16.97;3.83;;;;;;;5.22;97.37;100393.38;6103558;23;20021;-83
2022/02/23 01:31:21;;;;;;;19.50;4.20;;;;;;;5.23;97.29;100399.47;6128153;23;20032;-84
2022/02/23 01:33:48;;;;;;;11.80;3.43;;;;;;;5.16;99.25;100400.34;6128478;23;20032;-83
2022/02/23 01:36:14;;;;;;;14.83;3.70;;;;;;;5.24;99.46;100403.81;6127312;23;20021;-83
2022/02/23 01:38:41;;;;;;;13.30;3.93;;;;;;;5.23;99.49;100402.97;6128144;23;20484;-85
2022/02/23 01:41:08;;;;;;;12.07;3.60;;;;;;;5.26;99.88;100409.91;6103657;23;20400;-83
2022/02/23 01:43:34;;;;;;;17.77;4.17;;;;;;;5.17;99.82;100412.56;6127592;23;20409;-84
2022/02/23 01:46:01;;;;;;;13.37;3.97;;;;;;;5.05;100.00;100414.34;6102732;23;20401;-83
2022/02/23 01:48:28;;;;;;;13.07;3.30;;;;;;;5.04;100.00;100422.19;6127502;23;20353;-83
2022/02/23 01:50:54;;;;;;;11.57;3.43;;;;;;;5.02;100.00;100432.66;6127440;23;20033;-83
2022/02/23 01:53:21;;;;;;;18.90;4.90;;;;;;;4.95;100.00;100417.84;6128176;23;20088;-84
2022/02/23 01:55:48;;;;;;;13.90;4.10;;;;;;;4.94;99.85;100429.19;6152406;23;20461;-83
2022/02/23 01:58:14;;;;;;;11.70;3.40;;;;;;;4.88;100.00;100439.69;6128289;23;20457;-82
2022/02/23 02:00:41;;;;;;;12.83;5.10;;;;;;;4.80;100.00;100449.28;6128652;23;20045;-83
2022/02/23 02:03:10;;;;;;;13.47;5.50;;;;;;;4.81;100.00;100451.03;6133329;23;20021;-84
2022/02/23 02:05:36;;;;;;;11.50;3.77;;;;;;;4.78;100.00;100451.88;6131447;23;20052;-83
2022/02/23 02:08:03;;;;;;;17.27;4.43;;;;;;;4.74;100.00;100462.38;6146115;23;20018;-83
2022/02/23 02:10:30;;;;;;;19.83;4.23;;;;;;;4.82;100.00;100467.59;6151826;23;20026;-81
2022/02/23 02:12:57;;;;;;;18.90;4.53;;;;;;;4.77;100.00;100467.59;6153624;23;20449;-82
2022/02/23 02:15:23;;;;;;;19.00;4.30;;;;;;;4.74;100.00;100470.22;6104755;23;20017;-79
2022/02/23 02:17:50;;;;;;;15.50;3.93;;;;;;;4.67;100.00;100485.03;6153268;23;20029;-82
2022/02/23 02:20:17;;;;;;;14.73;3.80;;;;;;;4.71;100.00;100483.31;6127920;23;20029;-80
2022/02/23 02:22:43;;;;;;;12.87;4.43;;;;;;;4.71;100.00;100493.78;6103614;23;20021;-80
2022/02/23 02:25:10;;;;;;;17.03;5.50;;;;;;;4.74;100.00;100510.34;6125647;23;20045;-82
2022/02/23 02:27:37;;;;;;;17.93;5.33;;;;;;;4.70;100.00;100487.66;6126043;23;20478;-81
2022/02/23 02:30:04;;;;;;;18.63;4.70;;;;;;;4.72;100.00;100500.75;6127405;23;20022;-82
2022/02/23 02:32:31;;;;;;;18.93;4.60;;;;;;;4.71;100.00;100512.09;6127929;23;20026;-83
2022/02/23 02:34:58;;;;;;;11.50;4.60;;;;;;;4.71;100.00;100506.88;6103272;23;20025;-81
2022/02/23 02:37:25;;;;;;;13.97;4.80;;;;;;;4.68;100.00;100512.06;6127364;23;20361;-81
2022/02/23 02:39:52;;;;;;;14.57;3.83;;;;;;;4.62;100.00;100515.53;6128631;23;20025;-81
2022/02/23 02:42:22;;;;;;;19.17;5.07;;;;;;;4.69;100.00;100519.03;6132728;23;20021;-80
2022/02/23 02:44:48;;;;;;;17.60;6.17;;;;;;;4.68;100.00;100525.16;6154377;23;20017;-82
2022/02/23 02:47:16;;;;;;;17.57;5.07;;;;;;;4.70;100.00;100531.25;6130827;23;20523;-83
2022/02/23 02:49:42;;;;;;;16.70;3.93;;;;;;;4.66;100.00;100532.13;6154784;23;20025;-81
2022/02/23 02:52:09;;;;;;;18.93;5.70;;;;;;;4.61;100.00;100541.72;6130437;23;20092;-83
2022/02/23 02:54:36;;;;;;;19.27;5.10;;;;;;;4.58;100.00;100539.09;6104870;23;20056;-82
2022/02/23 02:57:03;;;;;;;16.17;4.77;;;;;;;4.62;100.00;100553.91;6156210;23;20021;-80
2022/02/23 02:59:30;;;;;;;16.87;4.50;;;;;;;4.62;100.00;100561.78;6131872;23;20045;-81
2022/02/23 03:01:57;;;;;;;17.37;4.90;;;;;;;4.57;100.00;100574.00;6131464;23;20032;-82
2022/02/23 03:04:25;;;;;;;15.07;4.43;;;;;;;4.63;99.91;100572.28;6107491;23;20369;-81
2022/02/23 03:06:52;;;;;;;20.37;5.17;;;;;;;4.59;100.00;100567.88;6107515;23;20022;-83
2022/02/23 03:09:18;;;;;;;23.23;5.20;;;;;;;4.60;100.00;100582.72;6158560;23;20017;-81
2022/02/23 03:11:45;;;;;;;14.13;4.80;;;;;;;4.60;100.00;100587.06;6133126;23;20021;-81
2022/02/23 03:14:12;;;;;;;18.07;5.33;;;;;;;4.55;100.00;100594.91;6107119;23;20080;-81
2022/02/23 03:16:38;;;;;;;18.77;4.40;;;;;;;4.58;100.00;100601.91;6133073;23;20016;-80
2022/02/23 03:19:05;;;;;;;17.70;4.87;;;;;;;4.59;100.00;100594.03;6127062;23;20029;-79
2022/02/23 03:21:33;;;;;;;18.60;4.47;;;;;;;4.63;100.00;100601.06;6131245;23;20048;-80
2022/02/23 03:23:59;;;;;;;18.30;4.60;;;;;;;4.52;100.00;100605.34;6155903;23;20072;-80
2022/02/23 03:26:26;;;;;;;12.70;3.70;;;;;;;4.55;100.00;100610.63;6129839;23;20024;-82
2022/02/23 03:28:53;;;;;;;16.50;4.87;;;;;;;4.60;100.00;100602.78;6155407;23;20025;-79
2022/02/23 03:31:19;;;;;;;13.10;4.83;;;;;;;4.59;100.00;100616.72;6131319;23;20029;-80
2022/02/23 03:33:46;;;;;;;13.73;3.70;;;;;;;4.64;100.00;100609.78;6154927;23;20072;-83
2022/02/23 03:36:15;;;;;;;12.37;3.40;;;;;;;4.58;100.00;100609.75;6129714;23;20330;-82
2022/02/23 03:38:43;;;;;;;9.33;4.27;;;;;;;4.62;100.00;100621.94;6155534;23;20025;-82
2022/02/23 03:41:10;;;;;;;10.17;3.77;;;;;;;4.55;100.00;100620.22;6106810;23;20084;-81
2022/02/23 03:43:37;;;;;;;17.03;4.47;;;;;;;4.46;100.00;100629.78;6130864;23;20400;-82
2022/02/23 03:46:05;;;;;;;13.13;4.37;;;;;;;4.50;100.00;100638.50;6105590;23;20041;-80
2022/02/23 03:48:31;;;;;;;12.17;3.10;;;;;;;4.49;100.00;100637.63;6107109;23;20021;-82
2022/02/23 03:50:58;;;;;;;10.47;3.20;;;;;;;4.42;100.00;100648.94;6110636;23;20088;-80
2022/02/23 03:53:25;;;;;;;10.00;3.50;;;;;;;4.38;100.00;100651.53;6134936;23;20021;-82
2022/02/23 03:55:51;;;;;;;13.17;2.80;;;;;;;4.39;100.00;100663.75;6109103;23;20103;-80
2022/02/23 03:58:18;;;;;;;15.40;3.33;;;;;;;4.35;100.00;100664.56;6158389;23;20052;-80
2022/02/23 04:00:45;;;;;;;12.77;3.57;;;;;;;4.36;100.00;100685.50;6133583;23;20076;-83
2022/02/23 04:03:11;;;;;;;11.40;3.40;;;;;;;4.29;100.00;100681.13;6135003;23;20360;-81
2022/02/23 04:05:38;;;;;;;13.67;3.57;;;;;;;4.26;100.00;100695.91;6132790;23;20021;-81
2022/02/23 04:08:05;;;;;;;11.07;3.53;;;;;;;4.22;100.00;100700.28;6110063;23;20048;-80
2022/02/23 04:10:31;;;;;;;9.10;3.23;;;;;;;4.13;100.00;100701.09;6135313;23;20032;-85
2022/02/23 04:12:58;;;;;;;20.13;4.33;;;;;;;4.16;100.00;100716.78;6157827;23;20025;-82
2022/02/23 04:15:25;;;;;;;14.07;3.13;;;;;;;4.16;100.00;100727.25;6109121;23;20548;-80
2022/02/23 04:17:51;;;;;;;10.33;3.47;;;;;;;4.20;100.00;100742.09;6110061;23;20025;-84
2022/02/23 04:20:18;;;;;;;10.37;3.63;;;;;;;4.22;100.00;100744.72;6109905;23;20033;-81
2022/02/23 04:22:46;;;;;;;16.13;3.70;;;;;;;4.17;100.00;100754.25;6158626;23;20031;-82
2022/02/23 04:25:12;;;;;;;8.97;2.93;;;;;;;4.22;100.00;100752.56;6158092;23;20092;-83
2022/02/23 04:27:39;;;;;;;9.10;3.47;;;;;;;4.25;100.00;100765.66;6134853;23;20080;-81
2022/02/23 04:30:06;;;;;;;16.30;4.17;;;;;;;4.29;100.00;100769.16;6157474;23;20084;-78
2022/02/23 04:32:34;;;;;;;13.73;3.03;;;;;;;4.32;100.00;100771.81;6133844;23;20053;-80
2022/02/23 04:35:00;;;;;;;15.10;3.63;;;;;;;4.37;100.00;100789.28;6132957;23;20049;-81
2022/02/23 04:37:29;;;;;;;11.57;3.67;;;;;;;4.34;100.00;100786.63;6105274;23;20028;-82
2022/02/23 04:39:58;;;;;;;14.33;3.63;;;;;;;4.42;100.00;100781.47;6157517;23;20018;-79
2022/02/23 04:42:25;;;;;;;10.53;3.40;;;;;;;4.37;100.00;100793.63;6134354;23;20032;-79
2022/02/23 04:44:51;;;;;;;13.73;4.23;;;;;;;4.36;100.00;100791.88;6132725;23;20017;-79
2022/02/23 04:47:18;;;;;;;15.23;4.30;;;;;;;4.33;100.00;100802.31;6133329;23;20076;-79
2022/02/23 04:49:45;;;;;;;23.80;4.23;;;;;;;4.35;100.00;100796.22;6158674;23;20026;-81
2022/02/23 04:52:11;;;;;;;17.40;4.33;;;;;;;4.35;100.00;100800.59;6159986;23;20334;-80
2022/02/23 04:54:38;;;;;;;10.30;2.90;;;;;;;4.31;100.00;100815.41;6109935;23;20029;-80
2022/02/23 04:57:05;;;;;;;9.97;3.57;;;;;;;4.30;100.00;100811.03;6133794;23;20018;-80
2022/02/23 04:59:32;;;;;;;10.37;3.37;;;;;;;4.29;100.00;100805.75;6135151;23;20449;-80
2022/02/23 05:01:59;;;;;;;15.97;3.77;;;;;;;4.35;100.00;100809.31;6159617;23;20025;-80
2022/02/23 05:04:27;;;;;;;12.67;3.40;;;;;;;4.26;100.00;100821.44;6134414;23;20049;-79
2022/02/23 05:06:53;;;;;;;11.83;3.97;;;;;;;4.17;100.00;100827.47;6158729;23;20028;-80
2022/02/23 05:09:20;;;;;;;13.57;3.37;;;;;;;4.16;100.00;100826.59;6134441;23;20035;-82
2022/02/23 05:11:47;;;;;;;11.87;4.23;;;;;;;4.23;100.00;100851.94;6134584;23;20017;-78
2022/02/23 05:14:13;;;;;;;13.93;4.03;;;;;;;4.23;100.00;100851.06;6134931;23;20357;-79
2022/02/23 05:16:40;;;;;;;15.40;3.67;;;;;;;4.18;100.00;100852.75;6107135;23;20017;-82
2022/02/23 05:19:07;;;;;;;11.83;3.50;;;;;;;4.19;100.00;100854.50;6157985;23;20021;-80
2022/02/23 05:21:33;;;;;;;7.40;3.37;;;;;;;4.19;100.00;100859.75;6133384;23;20025;-79
2022/02/23 05:24:04;;;;;;;9.57;3.13;;;;;;;4.08;100.00;100862.25;6136053;23;20032;-81
2022/02/23 05:26:31;;;;;;;13.10;3.67;;;;;;;4.10;100.00;100862.28;6157119;23;20096;-82
2022/02/23 05:28:57;;;;;;;13.33;3.93;;;;;;;4.09;100.00;100871.84;6157744;23;20457;-80
2022/02/23 05:31:24;;;;;;;13.43;3.43;;;;;;;4.08;100.00;100884.91;6134618;23;20021;-80
2022/02/23 05:33:51;;;;;;;10.93;3.17;;;;;;;4.04;100.00;100888.38;6133614;23;20464;-81
2022/02/23 05:36:17;;;;;;;10.97;3.70;;;;;;;3.98;100.00;100889.19;6135715;23;20044;-79
2022/02/23 05:38:44;;;;;;;18.50;3.47;;;;;;;3.95;100.00;100889.13;6136108;23;20021;-81
2022/02/23 05:41:11;;;;;;;10.37;3.57;;;;;;;3.89;100.00;100894.31;6135970;23;20352;-82
2022/02/23 05:43:38;;;;;;;17.20;3.47;;;;;;;3.81;100.00;100902.09;6111831;23;20025;-79
2022/02/23 05:46:04;;;;;;;11.30;3.67;;;;;;;3.79;100.00;100914.25;6136840;23;20025;-81
2022/02/23 05:48:31;;;;;;;11.43;4.10;;;;;;;3.78;100.00;100912.47;6113910;23;20028;-79
2022/02/23 05:50:59;;;;;;;12.00;3.90;;;;;;;3.76;100.00;100911.59;6155259;23;20032;-80
2022/02/23 05:53:25;;;;;;;12.37;4.03;;;;;;;3.64;100.00;100925.41;6130762;23;20364;-80
2022/02/23 05:55:52;;;;;;;11.33;3.37;;;;;;;3.58;100.00;100930.56;6154102;23;20129;-79
2022/02/23 05:58:19;;;;;;;18.67;4.80;;;;;;;3.61;100.00;100932.31;6130059;23;20029;-80
2022/02/23 06:00:46;;;;;;;10.67;3.80;;;;;;;3.49;100.00;100929.56;6130034;23;20517;-80
2022/02/23 06:03:13;;;;;;;14.23;5.13;;;;;;;3.52;100.00;100932.19;6154581;23;20074;-79
2022/02/23 06:05:40;;;;;;;13.00;4.60;;;;;;;3.56;100.00;100941.84;6109720;23;20028;-81
2022/02/23 06:08:06;;;;;;;11.63;3.50;;;;;;;3.53;100.00;100937.47;6111297;23;20017;-81
2022/02/23 06:10:33;;;;;;;16.77;4.13;;;;;;;3.51;100.00;100944.38;6136391;23;20060;-80
2022/02/23 06:13:01;;;;;;;15.20;4.00;;;;;;;3.46;100.00;100950.44;6113486;23;20024;-82
2022/02/23 06:15:27;;;;;;;17.10;4.47;;;;;;;3.39;100.00;100958.19;6135238;23;20393;-80
2022/02/23 06:17:54;;;;;;;14.13;3.93;;;;;;;3.39;100.00;100957.31;6112268;23;20013;-81
2022/02/23 06:20:21;;;;;;;14.23;4.47;;;;;;;3.47;100.00;100962.63;6161151;23;20034;-81
2022/02/23 06:22:47;;;;;;;17.10;4.60;;;;;;;3.47;100.00;100967.84;6137658;23;20017;-80
2022/02/23 06:25:14;;;;;;;16.33;3.67;;;;;;;3.48;100.00;100973.09;6162933;23;20025;-81
2022/02/23 06:27:43;;;;;;;13.97;3.83;;;;;;;3.42;100.00;100979.97;6137601;23;20017;-80
2022/02/23 06:30:10;;;;;;;14.57;4.73;;;;;;;3.46;100.00;100980.03;6162359;23;20049;-78
2022/02/23 06:32:37;;;;;;;11.93;3.67;;;;;;;3.51;100.00;100994.03;6139097;23;20401;-81
2022/02/23 06:35:04;;;;;;;14.53;3.73;;;;;;;3.51;100.00;100994.03;6109047;23;20071;-79
2022/02/23 06:37:30;;;;;;;11.73;3.87;;;;;;;3.47;100.00;101004.44;6156206;23;20013;-80
2022/02/23 06:39:57;;;;;;;17.13;4.20;;;;;;;3.47;100.00;101007.91;6129869;23;20025;-81
2022/02/23 06:42:24;;;;;;;17.37;4.70;;;;;;;3.50;100.00;101014.91;6106918;23;20022;-80
2022/02/23 06:44:50;;;;;;;15.60;4.80;;;;;;;3.51;100.00;101011.44;6130912;23;20356;-78
2022/02/23 06:47:17;;;;;;;25.73;4.83;;;;;;;3.62;100.00;101015.09;6130653;23;20467;-80
2022/02/23 06:49:44;;;;;;;22.80;5.77;;;;;;;3.64;100.00;101024.69;6158307;23;20044;-80
2022/02/23 06:52:11;;;;;;;16.07;5.23;;;;;;;3.67;100.00;101023.84;6158856;23;20470;-81
2022/02/23 06:54:38;;;;;;;13.03;4.17;;;;;;;3.73;100.00;101026.56;6160199;23;20024;-81
2022/02/23 06:57:06;;;;;;;21.50;4.67;;;;;;;3.73;100.00;101036.13;6158128;23;20388;-79
2022/02/23 06:59:33;;;;;;;18.83;5.20;;;;;;;3.71;100.00;101035.22;6131365;23;20017;-79
2022/02/23 07:02:00;;;;;;;14.87;4.63;;;;;;;3.77;100.00;101050.97;6130651;23;20018;-78
2022/02/23 07:04:29;;;;;;;16.43;4.43;;;;;;;3.87;100.00;101045.91;6154647;23;20056;-81
2022/02/23 07:07:02;;;;;;;15.20;4.57;;;;;;;3.91;100.00;101055.53;6109161;23;20020;-80
2022/02/23 07:09:31;;;;;;;16.90;4.60;;;;;;;3.91;100.00;101058.16;6133171;23;20022;-80
2022/02/23 07:12:01;;;;;;;17.63;5.07;;;;;;;3.92;100.00;101065.13;6107808;23;20032;-84
2022/02/23 07:14:28;;;;;;;16.17;4.07;;;;;;;4.01;100.00;101071.34;6107792;23;20567;-83
2022/02/23 07:16:55;;;;;;;13.53;3.93;;;;;;;4.02;100.00;101080.94;6155618;23;20022;-81
2022/02/23 07:19:24;;;;;;;17.97;4.83;;;;;;;4.01;100.00;101090.50;6131241;23;20032;-80
2022/02/23 07:21:51;;;;;;;14.47;4.67;;;;;;;4.10;100.00;101085.41;6156078;23;20021;-82
2022/02/23 07:24:19;;;;;;;16.37;4.17;;;;;;;4.20;100.00;101095.13;6131578;23;20393;-82
2022/02/23 07:26:45;;;;;;;16.63;4.70;;;;;;;4.18;100.00;101102.06;6130316;23;20014;-80
2022/02/23 07:29:13;;;;;;;16.33;4.47;;;;;;;4.21;100.00;101106.47;6155658;23;20025;-81
2022/02/23 07:31:40;;;;;;;13.00;4.13;;;;;;;4.26;100.00;101117.84;6131411;23;20021;-82
2022/02/23 07:34:07;;;;;;;23.07;4.47;;;;;;;4.34;100.00;101113.59;6132184;23;20412;-84
2022/02/23 07:36:34;;;;;;;17.60;3.93;;;;;;;4.43;100.00;101129.41;6107874;23;20332;-80
2022/02/23 07:39:00;;;;;;;19.73;6.33;;;;;;;4.44;100.00;101130.28;6157075;23;20242;-81
2022/02/23 07:41:28;;;;;;;14.77;4.43;;;;;;;4.57;100.00;101121.72;6132059;23;20029;-81
2022/02/23 07:44:16;;;;;;;15.30;4.30;;;;;;;4.58;100.00;101138.28;6155048;23;20424;-81
2022/02/23 07:46:43;;;;;;;10.47;3.70;;;;;;;4.64;100.00;101138.38;6106945;23;20021;-81
2022/02/23 07:49:09;;;;;;;14.57;5.37;;;;;;;4.73;100.00;101148.94;6155550;23;20029;-82
2022/02/23 07:51:36;;;;;;;13.50;4.30;;;;;;;4.82;100.00;101146.41;6155387;23;20352;-80
2022/02/23 07:54:03;;;;;;;15.50;3.80;;;;;;;4.98;100.00;101150.09;6131094;23;20069;-82
2022/02/23 07:56:29;;;;;;;17.97;3.50;;;;;;;4.96;100.00;101146.53;6155545;23;20388;-80
2022/02/23 07:58:56;;;;;;;18.60;4.77;;;;;;;5.03;100.00;101148.38;6159465;23;20021;-84
2022/02/23 08:01:41;;;;;;;15.67;4.20;;;;;;;5.12;100.00;101153.69;6135030;23;20029;-83
2022/02/23 08:04:09;;;;;;;9.77;4.30;;;;;;;5.15;100.00;101150.25;6136486;23;20064;-82
2022/02/23 08:06:39;;;;;;;18.93;5.67;;;;;;;5.25;100.00;101166.06;6160217;23;20076;-84
2022/02/23 08:09:08;;;;;;;15.10;4.33;;;;;;;5.45;100.00;101162.72;6136239;23;20013;-82
2022/02/23 08:14:24;;;;;;;10.50;3.83;;;;;;;5.57;100.00;101178.56;6124323;23;20096;-84
2022/02/23 08:19:36;;;;;;;12.53;3.50;;;;;;;5.73;99.95;101182.19;6102372;23;20118;-84
2022/02/23 08:22:12;;;;;;;12.73;4.80;;;;;;;5.82;99.34;101177.88;6075241;23;20080;-84
2022/02/23 08:24:43;;;;;;;11.37;4.80;;;;;;;5.85;97.58;101170.03;6097993;23;20022;-84
2022/02/23 08:27:13;;;;;;;12.57;5.17;;;;;;;5.85;97.76;101179.66;6075051;23;20022;-84
2022/02/23 08:29:41;;;;;;;14.67;4.30;;;;;;;5.98;94.01;101181.53;6074716;23;20270;-85
2022/02/23 08:32:10;;;;;;;11.67;4.70;;;;;;;6.08;93.42;101183.34;6098340;23;20032;-86
2022/02/23 08:34:39;;;;;;;10.97;4.90;;;;;;;6.13;92.98;101186.84;6074273;23;20022;-84
2022/02/23 08:37:06;;;;;;;10.87;3.60;;;;;;;6.11;92.70;101195.59;6098548;23;20014;-85
2022/02/23 08:39:35;;;;;;;18.00;5.50;;;;;;;6.18;94.33;101195.63;6098272;23;20046;-85
2022/02/23 08:42:03;;;;;;;8.00;3.20;;;;;;;6.31;nan;101190.47;6074801;23;20026;-84
2022/02/23 08:44:31;;;;;;;12.63;3.97;;;;;;;6.27;90.14;101189.56;6122013;23;20097;-84
2022/02/23 08:46:58;;;;;;;9.43;3.30;;;;;;;6.26;93.01;101194.81;6097364;23;20029;-83
2022/02/23 08:49:24;;;;;;;13.17;4.23;;;;;;;6.25;91.85;101206.19;6074690;23;20026;-82
2022/02/23 08:51:51;;;;;;;13.33;4.13;;;;;;;6.24;93.36;101200.06;6097049;23;20042;-84
2022/02/23 08:54:19;;;;;;;12.40;4.07;;;;;;;6.23;91.35;101207.91;6072204;23;20036;-82
2022/02/23 08:56:46;;;;;;;15.03;4.27;;;;;;;6.28;91.00;101199.19;6074396;23;20030;-82
2022/02/23 08:59:14;;;;;;;12.30;3.70;;;;;;;6.31;91.75;101209.72;6098585;23;20105;-83
2022/02/23 09:01:42;;;;;;;13.33;4.30;;;;;;;6.39;92.17;101212.34;6075692;23;20330;-83
2022/02/23 09:04:09;;;;;;;14.33;4.70;;;;;;;6.42;90.19;101204.53;6100781;23;20026;-82
2022/02/23 09:06:36;;;;;;;9.27;3.33;;;;;;;6.43;89.96;101212.41;6101031;23;20028;-82
2022/02/23 09:09:04;;;;;;;13.87;3.87;;;;;;;6.37;88.85;101212.34;6077562;23;20026;-83
2022/02/23 09:11:31;;;;;;;19.37;4.33;;;;;;;6.49;90.63;101217.69;6099717;23;20096;-83
2022/02/23 09:14:02;;;;;;;13.83;4.03;;;;;;;6.48;89.06;101228.19;6077336;23;20025;-83
2022/02/23 09:16:29;;;;;;;14.63;3.67;;;;;;;6.65;89.33;101223.88;6099452;23;20034;-82
2022/02/23 09:18:56;;;;;;;13.57;4.63;;;;;;;6.94;89.54;101231.00;6075518;23;20026;-81
2022/02/23 09:21:22;;;;;;;13.53;3.70;;;;;;;7.17;86.46;101246.84;6124371;23;20026;-81
2022/02/23 09:23:49;;;;;;;11.93;4.53;;;;;;;7.15;83.92;101253.84;6099414;23;20032;-82
2022/02/23 09:26:18;;;;;;;15.60;3.60;;;;;;;7.08;82.36;101250.31;6098844;23;20026;-83
2022/02/23 09:28:44;;;;;;;14.13;3.93;;;;;;;7.10;80.87;101234.56;6076230;23;20442;-83
2022/02/23 09:31:12;;;;;;;8.83;3.20;;;;;;;7.22;80.60;101256.47;6099387;23;20025;-82
2022/02/23 09:33:40;;;;;;;8.87;3.50;;;;;;;7.36;80.35;101253.88;6123665;23;20018;-83
2022/02/23 09:36:13;;;;;;;22.17;4.55;;;;;;;7.51;79.39;101256.56;6099084;23;20405;-83
2022/02/23 09:38:41;;;;;;;10.17;2.90;;;;;;;7.43;78.82;101249.53;6074736;23;20018;-82
2022/02/23 09:41:10;;;;;;;9.60;3.17;;;;;;;7.41;78.10;101254.78;6074439;23;20026;-83
2022/02/23 09:43:38;;;;;;;13.17;3.73;;;;;;;7.52;78.28;101283.72;6099289;23;20093;-82
2022/02/23 09:46:08;;;;;;;14.57;4.50;;;;;;;7.54;77.05;101268.81;6097655;23;20032;-82
2022/02/23 09:48:35;;;;;;;10.80;3.43;;;;;;;7.48;78.13;101268.81;6098547;23;20022;-83
2022/02/23 09:51:02;;;;;;;10.13;3.77;;;;;;;7.83;76.86;101274.13;6098440;23;20516;-81
2022/02/23 09:53:29;;;;;;;13.67;3.97;;;;;;;8.10;77.08;101274.13;6122912;23;20102;-83
2022/02/23 09:55:57;;;;;;;12.33;3.97;;;;;;;8.30;75.90;101274.09;6097271;23;20036;-83
2022/02/23 09:58:26;;;;;;;13.80;6.50;;;;;;;8.55;74.32;101276.72;6097975;23;20077;-84
2022/02/23 10:00:54;;;;;;;20.52;6.78;;;;;;;8.55;74.79;101277.59;6096816;23;20695;-83
2022/02/23 10:03:22;;;;;;;11.03;3.93;;;;;;;8.43;74.92;101286.41;6096298;23;20029;-83
2022/02/23 10:05:48;;;;;;;20.30;3.97;;;;;;;8.49;70.86;101293.38;6105710;23;20026;-83
2022/02/23 10:08:15;;;;;;;9.70;3.63;;;;;;;8.63;70.82;101296.88;6103049;23;20018;-83
2022/02/23 10:11:02;;;;;;;10.97;3.53;;;;;;;8.26;69.62;101298.69;6102415;23;20022;-83
2022/02/23 10:13:29;;;;;;;12.10;3.28;;;;;;;8.54;70.60;101311.84;6098954;23;20373;-84
2022/02/23 10:15:58;;;;;;;10.75;3.15;;;;;;;8.27;69.90;101310.09;6078670;23;20037;-82
2022/02/23 10:18:45;;;;;;;14.32;4.35;;;;;;;8.38;71.63;101311.84;6122624;23;20034;-83
2022/02/23 10:21:18;;;;;;;10.10;3.97;;;;;;;8.25;70.16;101330.28;6075498;23;20113;-83
2022/02/23 10:23:46;;;;;;;11.50;3.67;;;;;;;8.28;71.01;101325.00;6097984;23;20037;-84
2022/02/23 10:26:16;;;;;;;11.70;3.33;;;;;;;8.25;70.70;101323.25;6098240;23;20102;-83
2022/02/23 10:28:42;;;;;;;12.90;3.53;;;;;;;8.34;71.28;101325.88;6121696;23;20018;-84
2022/02/23 10:31:11;;;;;;;11.50;3.90;;;;;;;8.79;71.78;101333.72;6098480;23;20029;-83
2022/02/23 10:33:42;;;;;;;8.87;3.87;;;;;;;8.94;67.75;101334.56;6098377;23;20033;-83
2022/02/23 10:36:32;;;;;;;9.10;4.00;;;;;;;9.01;67.96;101338.94;6101430;23;20049;-82
2022/02/23 10:39:07;;;;;;;10.90;3.38;;;;;;;9.35;66.78;101344.09;6097794;23;20028;-82
2022/02/23 10:41:36;;;;;;;8.07;3.08;;;;;;;9.67;67.28;101345.66;6100013;23;20048;-82
2022/02/23 10:44:04;;;;;;;12.15;3.40;;;;;;;9.94;63.36;101334.09;6074134;23;20037;-81
2022/02/23 10:46:31;;;;;;;11.50;3.25;;;;;;;9.42;62.12;101359.00;6097531;23;20033;-82
2022/02/23 10:48:59;;;;;;;11.35;3.97;;;;;;;9.34;64.13;101355.53;6098591;23;20354;-82
2022/02/23 10:51:36;;;;;;;10.73;4.25;;;;;;;9.44;65.20;101349.31;6098762;23;20025;-81
2022/02/23 10:54:09;;;;;;;10.60;3.33;;;;;;;9.55;63.35;101342.22;6076087;23;20049;-81
2022/02/23 10:56:40;;;;;;;15.93;4.32;;;;;;;9.31;63.52;101363.44;6097762;23;20740;-82
2022/02/23 10:59:15;;;;;;;10.00;3.67;;;;;;;9.40;66.00;101366.03;6099271;23;20050;-83
2022/02/23 11:01:43;;;;;;;9.18;3.30;;;;;;;9.55;64.61;101373.00;6124125;23;20105;-83
2022/02/23 11:04:10;;;;;;;10.27;3.00;;;;;;;9.76;64.16;101366.75;6075107;23;20017;-83
2022/02/23 11:06:37;;;;;;;10.57;3.03;;;;;;;9.59;63.54;101373.00;6122404;23;20029;-82
2022/02/23 11:09:06;;;;;;;10.00;3.67;;;;;;;9.82;64.34;101377.25;6098753;23;20026;-82
2022/02/23 11:11:33;;;;;;;6.75;2.97;;;;;;;9.68;61.81;101384.38;6123164;23;20030;-82
2022/02/23 11:14:01;;;;;;;7.68;3.60;;;;;;;9.28;60.36;101371.38;6098977;23;20045;-83
2022/02/23 11:16:31;;;;;;;12.55;3.35;;;;;;;9.47;63.76;101388.84;6073826;23;20058;-83
2022/02/23 11:18:59;;;;;;;13.18;3.85;;;;;;;9.36;61.79;101395.94;6074628;23;20462;-82
2022/02/23 11:21:33;;;;;;;8.25;3.17;;;;;;;9.47;62.60;101388.84;6100223;23;20030;-83
2022/02/23 11:24:07;;;;;;;12.82;2.90;;;;;;;9.67;63.20;101407.25;6098526;23;20025;-83
2022/02/23 11:26:35;;;;;;;10.75;3.28;;;;;;;9.37;62.90;101397.69;6096875;23;20029;-83
2022/02/23 11:29:10;;;;;;;11.05;3.67;;;;;;;9.81;63.22;101396.59;6097576;23;20331;-83